Aérodrome :
LOGIN :

S'inscrire | Disclaimer

   EN    FR    IT 

 










Légende :    VFR   VFR Marginal   IFR   IFR Intensif   IFR Très Intensif
Visi : 
Plafond : 
>= 8 km
>= 3000ft
5 à 8 km
1000 à 3000 ft
1500m à 5 km
500 à 1000 ft
800 à 1500m
200 à 500 ft
< 800m
< 200 ft
Symboles :   Orages  Brouillard  Fortes neiges  Fortes précipitations  Vent > 20 kt
SIGMETs :   Divers  Orages  Givrage  Turbulence  Onde Orograph.  Cendres Volcan.






- Altitude de l'aérodrome : 14 ft
- Code IATA : BRE


EDDW - Bremen Neuenland

DERNIER METAR :
  • 170250Z AUTO 12002KT 7000 NSC 12/11 Q1009

METARs EXPIRÉS :
  • 170220Z AUTO 15003KT 3300 0600 R27/P2000N BCFG NSC 11/11 Q1009
  • 170150Z AUTO 09002KT 1000 0300 R27/P2000N BCFG NSC 11/11 Q1009
  • 170120Z AUTO VRB02KT 2000 0300 R27/P2000N BCFG NSC 11/11 Q1009
  • 170050Z AUTO VRB02KT 1200 0350 R27/1700D BCFG NSC 12/12 Q1009
  • 170020Z AUTO 12001KT 0450 0300 R27/0650U FG NSC 11/11 Q1009
  • 162350Z AUTO VRB02KT 2100 0350 R27/P2000N BCFG NSC 12/12 Q1009
  • 162320Z AUTO 15003KT 0600 0300 R27/0750D FG NSC 12/12 Q1009
  • 162250Z AUTO 17002KT 1100 0500 R27/1600D BCFG NSC 12/12 Q1009
  • 162220Z AUTO 15003KT 0800 0350 R27/P2000N FG NSC 13/12 Q1009
  • 162150Z AUTO 14002KT CAVOK 13/13 Q1008

TAF TAF EDDW
Valide du 17 à 00h jusqu'au 18 à 00h UTC


162300Z 1700/1724 16004KT 9999 SCT030
TEMPO 1700/1705 1200 BCFG
PROB40
TEMPO 1700/1704 0400 FG
PROB30
TEMPO 1704/1708 SHRA BKN030CB
BECMG 1706/1708 21009KT
TEMPO 1708/1717 4000 SHRA BKN020CB
PROB30
TEMPO 1709/1717 22015G30KT 2500 TSRA
BECMG 1717/1719 18004KT



MET'MAP, la Météo Aéronautique d'un coup d'oeil ! - Copyright ORBIFLY Décembre 2007 - Disclaimer

ORBIFLY MET'MAP TEAM :

Programmation & Développement : Alexandra Zaïnal
Sur une idée originale de : Baudouin d'Aumeries
Soutien technique & logistique : Manuel Goepfert
Assistance : Marc-Olivier Méhu




SOURCES & CREDITS :

   NOAA